Página principal
METAR-TAF:

METAR-TAF

Aeroportos :

Dubai, Emirados Árabes Unidos

Aeroporto Internacional de Dubai

latitude: 25-15-10N, longitude: 055-21-52E, altura: 8 m

Observação actual do tempo

O boletim foi feito há 52 minutos, às 00:00 UTC
Vento 6 kt de nordeste, variando entre nor-nordeste e este
Temperatura 23°C
Humidade 50%
Pressão 1009 hPa
Visibilidade 10 km ou mais
sem nuvens abaixo de 1500 metros e sem cumulonimbus

METAR: OMDB 230000Z 04006KT 020V090 CAVOK 23/12 Q1009 NOSIG

Hora: 04:52 (00:52 UTC)

Previsão

O boletim foi feito há 1 hora e 57 minutos, às 22:55 UTC
Previsão válida de 23 às 00 UTC a 24 às 06 UTC
Vento 5 kt de su-sudeste
Visibilidade: 8000 m
Tornando-se
de 23 às 08 UTC a 23 às 10 UTC
Vento 10 kt de noroeste
Tornando-se
de 23 às 16 UTC a 23 às 18 UTC
Vento 5 kt de este
Tornando-se
de 24 às 04 UTC a 24 às 06 UTC
Vento 10 kt de sul

TAF: OMDB 222255Z 2300/2406 15005KT 8000 NSC BECMG 2308/2310 31010KT BECMG 2316/2318 09005KT BECMG 2404/2406 17010KT

Observações e previsões do tempo de mais de 4000 aeroportos (mensagens METAR e TAF).

As estações disponíveis são os pontos amarelos e vermelhos sobre o mapa.

Mova o rato sobre o mapa para ver o nome da estação.

Depois clique no ponto para visualizar as observações e previsões meteorológicas.

Para alterar o mapa : clique nos botões verdes com uma cruz preta para aumentar o zoom; no botão verde com uma pitada de zoom; ou nas setas verdes para mapas adjacentes.


METAR-TAF: